首页
METAR-TAF:

METAR-TAF

机场 :

清州國際機場

清州, 大韩民国

纬度: 36-42N, 经度: 127-30E, 海拔: 58米

当前天气观测

该预报发布于1小时和17分钟前的20:00 UTC
风速3节,风向西转西南
温度 22°C
湿度 94%
气压 1002 hPa
能見度: 9000
散云层高于2000英尺
多云层高于3000英尺

METAR: RKTU 232000Z 24003KT 9000 SCT020 BKN030 22/21 Q1002

时间: 06:17 (21:17 UTC)

预报

该预报发布于4小时和17分钟前的17:00 UTC
预报有效从23日的 18点(UTC)到 24日的 24点(UTC)
风速6节,风向西转西南
能见度10公里或以上
多云层高于3000英尺
多云层高于25000英尺

TAF: RKTU 231700Z 2318/2424 24006KT 9999 BKN030 BKN250 TN20/2321Z TX26/2406Z

超过4000个机场的气象观测和天气预报(METAR&TAF报告)。

可查询的气象台以黄色和红色小点在地图上表示。

将鼠标移到小点上方,可查看气象台名称。

然后点击查看天气观测和预报。

如需切换地图:点击带黑十字的绿色按钮放大地图;点击带横线的绿色按钮缩小地图;或者点击绿色箭头查看邻近地区的地图。


METAR-TAF: